sensor_id;sensor_type;location;lat;lon;timestamp;P1;durP1;ratioP1;P2;durP2;ratioP2
40997;SDS011;26740;45.944;12.480;2023-07-28T00:01:02;3.08;;;0.80;;
40997;SDS011;26740;45.944;12.480;2023-07-28T00:03:27;2.15;;;0.70;;
40997;SDS011;26740;45.944;12.480;2023-07-28T00:05:52;2.58;;;1.10;;
40997;SDS011;26740;45.944;12.480;2023-07-28T00:08:18;4.05;;;0.82;;
40997;SDS011;26740;45.944;12.480;2023-07-28T00:10:43;2.92;;;0.57;;
40997;SDS011;26740;45.944;12.480;2023-07-28T00:13:09;1.33;;;0.70;;
40997;SDS011;26740;45.944;12.480;2023-07-28T00:15:34;2.20;;;0.70;;
40997;SDS011;26740;45.944;12.480;2023-07-28T00:17:59;3.15;;;0.55;;
40997;SDS011;26740;45.944;12.480;2023-07-28T00:20:27;1.90;;;0.63;;
40997;SDS011;26740;45.944;12.480;2023-07-28T00:22:52;1.77;;;0.57;;
40997;SDS011;26740;45.944;12.480;2023-07-28T00:25:18;1.27;;;0.85;;
40997;SDS011;26740;45.944;12.480;2023-07-28T00:27:43;3.28;;;0.73;;
40997;SDS011;26740;45.944;12.480;2023-07-28T00:30:09;1.13;;;0.50;;
40997;SDS011;26740;45.944;12.480;2023-07-28T00:32:35;1.70;;;0.50;;
40997;SDS011;26740;45.944;12.480;2023-07-28T00:35:01;1.73;;;0.60;;
40997;SDS011;26740;45.944;12.480;2023-07-28T00:37:26;1.92;;;0.85;;
40997;SDS011;26740;45.944;12.480;2023-07-28T00:39:51;0.80;;;0.47;;
40997;SDS011;26740;45.944;12.480;2023-07-28T00:42:17;1.83;;;0.70;;
40997;SDS011;26740;45.944;12.480;2023-07-28T00:44:42;3.45;;;0.98;;
40997;SDS011;26740;45.944;12.480;2023-07-28T00:47:07;0.95;;;0.40;;
40997;SDS011;26740;45.944;12.480;2023-07-28T00:49:33;1.63;;;0.60;;
40997;SDS011;26740;45.944;12.480;2023-07-28T00:51:58;1.13;;;0.50;;
40997;SDS011;26740;45.944;12.480;2023-07-28T00:54:24;2.58;;;0.60;;
40997;SDS011;26740;45.944;12.480;2023-07-28T00:56:49;2.80;;;0.65;;
40997;SDS011;26740;45.944;12.480;2023-07-28T00:59:16;1.33;;;0.50;;
40997;SDS011;26740;45.944;12.480;2023-07-28T01:01:41;1.73;;;0.70;;
40997;SDS011;26740;45.944;12.480;2023-07-28T01:04:07;0.95;;;0.40;;
40997;SDS011;26740;45.944;12.480;2023-07-28T01:06:51;2.90;;;0.47;;
40997;SDS011;26740;45.944;12.480;2023-07-28T01:09:21;0.60;;;0.43;;
40997;SDS011;26740;45.944;12.480;2023-07-28T01:11:58;1.05;;;0.40;;
40997;SDS011;26740;45.944;12.480;2023-07-28T01:14:24;1.10;;;0.40;;
40997;SDS011;26740;45.944;12.480;2023-07-28T01:16:49;2.25;;;0.30;;
40997;SDS011;26740;45.944;12.480;2023-07-28T01:19:18;3.20;;;0.57;;
40997;SDS011;26740;45.944;12.480;2023-07-28T01:21:46;1.00;;;0.40;;
40997;SDS011;26740;45.944;12.480;2023-07-28T01:26:38;2.70;;;0.50;;
40997;SDS011;26740;45.944;12.480;2023-07-28T01:29:03;2.67;;;0.40;;
40997;SDS011;26740;45.944;12.480;2023-07-28T01:31:30;1.33;;;0.40;;
40997;SDS011;26740;45.944;12.480;2023-07-28T01:33:55;2.92;;;0.52;;
40997;SDS011;26740;45.944;12.480;2023-07-28T01:36:21;3.08;;;0.30;;
40997;SDS011;26740;45.944;12.480;2023-07-28T01:38:46;0.50;;;0.30;;
40997;SDS011;26740;45.944;12.480;2023-07-28T01:41:11;1.35;;;0.38;;
40997;SDS011;26740;45.944;12.480;2023-07-28T01:43:37;3.58;;;0.38;;
40997;SDS011;26740;45.944;12.480;2023-07-28T01:46:02;1.48;;;0.50;;
40997;SDS011;26740;45.944;12.480;2023-07-28T01:48:27;1.55;;;0.50;;
40997;SDS011;26740;45.944;12.480;2023-07-28T01:50:53;1.05;;;0.30;;
40997;SDS011;26740;45.944;12.480;2023-07-28T01:53:18;0.40;;;0.28;;
40997;SDS011;26740;45.944;12.480;2023-07-28T01:55:44;0.35;;;0.30;;
40997;SDS011;26740;45.944;12.480;2023-07-28T01:58:09;0.32;;;0.30;;
40997;SDS011;26740;45.944;12.480;2023-07-28T02:00:35;1.60;;;0.45;;
40997;SDS011;26740;45.944;12.480;2023-07-28T02:03:00;2.85;;;0.52;;
40997;SDS011;26740;45.944;12.480;2023-07-28T02:05:27;0.70;;;0.30;;
40997;SDS011;26740;45.944;12.480;2023-07-28T02:07:53;1.20;;;0.38;;
40997;SDS011;26740;45.944;12.480;2023-07-28T02:10:19;0.77;;;0.40;;
40997;SDS011;26740;45.944;12.480;2023-07-28T02:12:44;3.83;;;0.50;;
40997;SDS011;26740;45.944;12.480;2023-07-28T02:15:12;2.05;;;0.40;;
40997;SDS011;26740;45.944;12.480;2023-07-28T02:17:38;0.90;;;0.40;;
40997;SDS011;26740;45.944;12.480;2023-07-28T02:20:04;0.77;;;0.40;;
40997;SDS011;26740;45.944;12.480;2023-07-28T02:22:29;0.77;;;0.40;;
40997;SDS011;26740;45.944;12.480;2023-07-28T02:24:55;0.85;;;0.40;;
40997;SDS011;26740;45.944;12.480;2023-07-28T02:27:21;1.63;;;0.50;;
40997;SDS011;26740;45.944;12.480;2023-07-28T02:29:46;1.23;;;0.30;;
40997;SDS011;26740;45.944;12.480;2023-07-28T02:32:12;1.30;;;0.40;;
40997;SDS011;26740;45.944;12.480;2023-07-28T02:34:38;0.80;;;0.40;;
40997;SDS011;26740;45.944;12.480;2023-07-28T02:37:03;0.55;;;0.30;;
40997;SDS011;26740;45.944;12.480;2023-07-28T02:39:29;2.00;;;0.40;;
40997;SDS011;26740;45.944;12.480;2023-07-28T02:41:54;1.52;;;0.40;;
40997;SDS011;26740;45.944;12.480;2023-07-28T02:44:19;0.40;;;0.30;;
40997;SDS011;26740;45.944;12.480;2023-07-28T02:46:45;1.67;;;0.57;;
40997;SDS011;26740;45.944;12.480;2023-07-28T02:49:10;1.23;;;0.50;;
40997;SDS011;26740;45.944;12.480;2023-07-28T02:51:36;1.73;;;0.30;;
40997;SDS011;26740;45.944;12.480;2023-07-28T02:54:01;1.85;;;0.55;;
40997;SDS011;26740;45.944;12.480;2023-07-28T02:56:26;0.70;;;0.30;;
40997;SDS011;26740;45.944;12.480;2023-07-28T02:58:52;3.70;;;0.60;;
40997;SDS011;26740;45.944;12.480;2023-07-28T03:01:17;1.55;;;0.50;;
40997;SDS011;26740;45.944;12.480;2023-07-28T03:03:43;2.72;;;0.73;;
40997;SDS011;26740;45.944;12.480;2023-07-28T03:06:08;1.08;;;0.47;;
40997;SDS011;26740;45.944;12.480;2023-07-28T03:08:34;1.08;;;0.38;;
40997;SDS011;26740;45.944;12.480;2023-07-28T03:10:59;1.52;;;0.52;;
40997;SDS011;26740;45.944;12.480;2023-07-28T03:13:28;2.05;;;0.73;;
40997;SDS011;26740;45.944;12.480;2023-07-28T03:15:53;2.92;;;0.50;;
40997;SDS011;26740;45.944;12.480;2023-07-28T03:18:19;0.30;;;0.30;;
40997;SDS011;26740;45.944;12.480;2023-07-28T03:20:45;1.52;;;0.50;;
40997;SDS011;26740;45.944;12.480;2023-07-28T03:23:11;1.85;;;0.35;;
40997;SDS011;26740;45.944;12.480;2023-07-28T03:25:36;1.95;;;0.50;;
40997;SDS011;26740;45.944;12.480;2023-07-28T03:28:01;2.50;;;0.40;;
40997;SDS011;26740;45.944;12.480;2023-07-28T03:30:27;2.05;;;0.60;;
40997;SDS011;26740;45.944;12.480;2023-07-28T03:32:52;2.78;;;0.55;;
40997;SDS011;26740;45.944;12.480;2023-07-28T03:35:17;2.90;;;0.40;;
40997;SDS011;26740;45.944;12.480;2023-07-28T03:37:43;4.32;;;0.68;;
40997;SDS011;26740;45.944;12.480;2023-07-28T03:40:08;2.40;;;0.43;;
40997;SDS011;26740;45.944;12.480;2023-07-28T03:42:34;1.25;;;0.40;;
40997;SDS011;26740;45.944;12.480;2023-07-28T03:44:59;1.02;;;0.30;;
40997;SDS011;26740;45.944;12.480;2023-07-28T03:47:25;0.40;;;0.30;;
40997;SDS011;26740;45.944;12.480;2023-07-28T03:49:50;1.50;;;0.50;;
40997;SDS011;26740;45.944;12.480;2023-07-28T03:52:15;1.02;;;0.50;;
40997;SDS011;26740;45.944;12.480;2023-07-28T03:54:41;0.82;;;0.38;;
40997;SDS011;26740;45.944;12.480;2023-07-28T03:57:06;1.40;;;0.40;;
40997;SDS011;26740;45.944;12.480;2023-07-28T03:59:31;1.40;;;0.60;;
40997;SDS011;26740;45.944;12.480;2023-07-28T04:01:57;4.43;;;0.47;;
40997;SDS011;26740;45.944;12.480;2023-07-28T04:04:23;0.57;;;0.38;;
40997;SDS011;26740;45.944;12.480;2023-07-28T04:06:49;2.75;;;0.77;;
40997;SDS011;26740;45.944;12.480;2023-07-28T04:09:23;5.40;;;0.63;;
40997;SDS011;26740;45.944;12.480;2023-07-28T04:11:48;2.47;;;0.70;;
40997;SDS011;26740;45.944;12.480;2023-07-28T04:14:14;2.85;;;0.73;;
40997;SDS011;26740;45.944;12.480;2023-07-28T04:16:39;3.38;;;0.70;;
40997;SDS011;26740;45.944;12.480;2023-07-28T04:19:05;3.80;;;0.55;;
40997;SDS011;26740;45.944;12.480;2023-07-28T04:21:30;1.27;;;0.57;;
40997;SDS011;26740;45.944;12.480;2023-07-28T04:23:56;2.20;;;0.90;;
40997;SDS011;26740;45.944;12.480;2023-07-28T04:26:22;0.95;;;0.88;;
40997;SDS011;26740;45.944;12.480;2023-07-28T04:28:48;2.67;;;0.50;;
40997;SDS011;26740;45.944;12.480;2023-07-28T04:31:13;1.25;;;0.47;;
40997;SDS011;26740;45.944;12.480;2023-07-28T04:33:42;2.13;;;0.40;;
40997;SDS011;26740;45.944;12.480;2023-07-28T04:36:07;1.77;;;0.50;;
40997;SDS011;26740;45.944;12.480;2023-07-28T04:38:33;1.05;;;0.50;;
40997;SDS011;26740;45.944;12.480;2023-07-28T04:40:58;3.13;;;0.50;;
40997;SDS011;26740;45.944;12.480;2023-07-28T04:43:24;0.60;;;0.43;;
40997;SDS011;26740;45.944;12.480;2023-07-28T04:45:49;0.77;;;0.50;;
40997;SDS011;26740;45.944;12.480;2023-07-28T04:48:14;0.95;;;0.68;;
40997;SDS011;26740;45.944;12.480;2023-07-28T04:50:40;0.85;;;0.50;;
40997;SDS011;26740;45.944;12.480;2023-07-28T04:53:05;1.65;;;0.50;;
40997;SDS011;26740;45.944;12.480;2023-07-28T04:55:30;1.65;;;0.60;;
40997;SDS011;26740;45.944;12.480;2023-07-28T04:57:56;0.63;;;0.50;;
40997;SDS011;26740;45.944;12.480;2023-07-28T05:00:21;1.30;;;0.60;;
40997;SDS011;26740;45.944;12.480;2023-07-28T05:02:48;2.28;;;0.70;;
40997;SDS011;26740;45.944;12.480;2023-07-28T05:05:13;2.88;;;0.70;;
40997;SDS011;26740;45.944;12.480;2023-07-28T05:07:38;3.30;;;0.70;;
40997;SDS011;26740;45.944;12.480;2023-07-28T05:10:04;3.58;;;0.57;;
40997;SDS011;26740;45.944;12.480;2023-07-28T05:12:29;2.45;;;0.52;;
40997;SDS011;26740;45.944;12.480;2023-07-28T05:14:55;3.25;;;0.90;;
40997;SDS011;26740;45.944;12.480;2023-07-28T05:17:21;3.03;;;1.20;;
40997;SDS011;26740;45.944;12.480;2023-07-28T05:19:46;3.25;;;0.90;;
40997;SDS011;26740;45.944;12.480;2023-07-28T05:22:12;2.60;;;1.17;;
40997;SDS011;26740;45.944;12.480;2023-07-28T05:24:37;1.50;;;0.52;;
40997;SDS011;26740;45.944;12.480;2023-07-28T05:27:02;2.25;;;0.47;;
40997;SDS011;26740;45.944;12.480;2023-07-28T05:29:28;1.27;;;0.35;;
40997;SDS011;26740;45.944;12.480;2023-07-28T05:31:53;1.23;;;0.32;;
40997;SDS011;26740;45.944;12.480;2023-07-28T05:34:19;1.58;;;0.35;;
40997;SDS011;26740;45.944;12.480;2023-07-28T05:36:44;3.03;;;0.50;;
40997;SDS011;26740;45.944;12.480;2023-07-28T05:39:09;1.70;;;0.40;;
40997;SDS011;26740;45.944;12.480;2023-07-28T05:41:36;2.17;;;0.47;;
40997;SDS011;26740;45.944;12.480;2023-07-28T05:44:02;1.85;;;0.50;;
40997;SDS011;26740;45.944;12.480;2023-07-28T05:46:27;1.35;;;0.50;;
40997;SDS011;26740;45.944;12.480;2023-07-28T05:48:54;0.90;;;0.50;;
40997;SDS011;26740;45.944;12.480;2023-07-28T05:51:19;4.82;;;0.77;;
40997;SDS011;26740;45.944;12.480;2023-07-28T05:53:44;1.58;;;0.57;;
40997;SDS011;26740;45.944;12.480;2023-07-28T05:56:10;3.03;;;0.68;;
40997;SDS011;26740;45.944;12.480;2023-07-28T05:58:35;3.17;;;0.63;;
40997;SDS011;26740;45.944;12.480;2023-07-28T06:01:00;3.83;;;0.85;;
40997;SDS011;26740;45.944;12.480;2023-07-28T06:03:26;4.13;;;0.93;;
40997;SDS011;26740;45.944;12.480;2023-07-28T06:05:51;2.08;;;0.90;;
40997;SDS011;26740;45.944;12.480;2023-07-28T06:08:17;5.93;;;1.33;;
40997;SDS011;26740;45.944;12.480;2023-07-28T06:10:42;11.48;;;1.95;;
40997;SDS011;26740;45.944;12.480;2023-07-28T06:13:08;8.27;;;1.60;;
40997;SDS011;26740;45.944;12.480;2023-07-28T06:15:33;8.43;;;1.50;;
40997;SDS011;26740;45.944;12.480;2023-07-28T06:18:00;7.40;;;1.15;;
40997;SDS011;26740;45.944;12.480;2023-07-28T06:20:25;4.00;;;0.60;;
40997;SDS011;26740;45.944;12.480;2023-07-28T06:22:51;7.05;;;0.88;;
40997;SDS011;26740;45.944;12.480;2023-07-28T06:25:16;1.92;;;0.80;;
40997;SDS011;26740;45.944;12.480;2023-07-28T06:27:42;3.50;;;0.60;;
40997;SDS011;26740;45.944;12.480;2023-07-28T06:30:08;7.03;;;2.28;;
40997;SDS011;26740;45.944;12.480;2023-07-28T06:32:33;4.97;;;1.52;;
40997;SDS011;26740;45.944;12.480;2023-07-28T06:34:59;5.28;;;4.88;;
40997;SDS011;26740;45.944;12.480;2023-07-28T06:37:24;5.85;;;3.30;;
40997;SDS011;26740;45.944;12.480;2023-07-28T06:39:49;9.90;;;6.05;;
40997;SDS011;26740;45.944;12.480;2023-07-28T06:42:16;6.32;;;5.13;;
40997;SDS011;26740;45.944;12.480;2023-07-28T06:44:45;1.70;;;1.60;;
40997;SDS011;26740;45.944;12.480;2023-07-28T06:47:11;5.20;;;2.65;;
40997;SDS011;26740;45.944;12.480;2023-07-28T06:49:36;2.60;;;2.40;;
40997;SDS011;26740;45.944;12.480;2023-07-28T06:52:02;1.40;;;0.52;;
40997;SDS011;26740;45.944;12.480;2023-07-28T06:54:27;1.15;;;0.75;;
40997;SDS011;26740;45.944;12.480;2023-07-28T06:56:53;2.88;;;1.90;;
40997;SDS011;26740;45.944;12.480;2023-07-28T06:59:18;3.70;;;1.73;;
40997;SDS011;26740;45.944;12.480;2023-07-28T07:01:43;3.60;;;0.30;;
40997;SDS011;26740;45.944;12.480;2023-07-28T07:04:09;2.42;;;1.08;;
40997;SDS011;26740;45.944;12.480;2023-07-28T07:06:34;2.10;;;0.80;;
40997;SDS011;26740;45.944;12.480;2023-07-28T07:09:00;0.80;;;0.57;;
40997;SDS011;26740;45.944;12.480;2023-07-28T07:11:26;1.20;;;0.45;;
40997;SDS011;26740;45.944;12.480;2023-07-28T07:13:51;1.80;;;0.20;;
40997;SDS011;26740;45.944;12.480;2023-07-28T07:16:16;0.35;;;0.20;;
40997;SDS011;26740;45.944;12.480;2023-07-28T07:18:42;0.93;;;0.28;;
40997;SDS011;26740;45.944;12.480;2023-07-28T07:21:08;3.05;;;0.20;;
40997;SDS011;26740;45.944;12.480;2023-07-28T07:23:33;0.38;;;0.22;;
40997;SDS011;26740;45.944;12.480;2023-07-28T07:25:59;1.40;;;0.20;;
40997;SDS011;26740;45.944;12.480;2023-07-28T07:28:25;0.57;;;0.30;;
40997;SDS011;26740;45.944;12.480;2023-07-28T07:30:50;2.95;;;0.20;;
40997;SDS011;26740;45.944;12.480;2023-07-28T07:33:15;0.80;;;0.20;;
40997;SDS011;26740;45.944;12.480;2023-07-28T07:35:41;0.95;;;0.30;;
40997;SDS011;26740;45.944;12.480;2023-07-28T07:38:06;1.80;;;0.20;;
40997;SDS011;26740;45.944;12.480;2023-07-28T07:40:37;3.97;;;0.30;;
40997;SDS011;26740;45.944;12.480;2023-07-28T07:43:02;3.63;;;0.75;;
40997;SDS011;26740;45.944;12.480;2023-07-28T07:45:31;1.25;;;0.30;;
40997;SDS011;26740;45.944;12.480;2023-07-28T07:47:56;1.65;;;0.40;;
40997;SDS011;26740;45.944;12.480;2023-07-28T07:50:22;1.23;;;0.45;;
40997;SDS011;26740;45.944;12.480;2023-07-28T07:52:47;1.35;;;0.30;;
40997;SDS011;26740;45.944;12.480;2023-07-28T07:55:13;0.75;;;0.30;;
40997;SDS011;26740;45.944;12.480;2023-07-28T07:57:38;0.45;;;0.17;;
40997;SDS011;26740;45.944;12.480;2023-07-28T08:00:04;0.60;;;0.10;;
40997;SDS011;26740;45.944;12.480;2023-07-28T08:02:30;1.25;;;0.17;;
40997;SDS011;26740;45.944;12.480;2023-07-28T08:04:55;1.08;;;0.28;;
40997;SDS011;26740;45.944;12.480;2023-07-28T08:07:21;1.67;;;0.30;;
40997;SDS011;26740;45.944;12.480;2023-07-28T08:09:47;1.55;;;0.20;;
40997;SDS011;26740;45.944;12.480;2023-07-28T08:12:13;0.73;;;0.20;;
40997;SDS011;26740;45.944;12.480;2023-07-28T08:14:39;0.45;;;0.32;;
40997;SDS011;26740;45.944;12.480;2023-07-28T08:17:05;2.17;;;0.20;;
40997;SDS011;26740;45.944;12.480;2023-07-28T08:19:30;1.38;;;0.20;;
40997;SDS011;26740;45.944;12.480;2023-07-28T08:21:56;0.52;;;0.10;;
40997;SDS011;26740;45.944;12.480;2023-07-28T08:24:21;1.15;;;0.30;;
40997;SDS011;26740;45.944;12.480;2023-07-28T08:26:47;1.33;;;0.20;;
40997;SDS011;26740;45.944;12.480;2023-07-28T08:29:12;2.13;;;0.20;;
40997;SDS011;26740;45.944;12.480;2023-07-28T08:31:37;1.85;;;0.30;;
40997;SDS011;26740;45.944;12.480;2023-07-28T08:34:03;0.98;;;0.30;;
40997;SDS011;26740;45.944;12.480;2023-07-28T08:36:28;1.15;;;0.30;;
40997;SDS011;26740;45.944;12.480;2023-07-28T08:38:54;1.80;;;0.30;;
40997;SDS011;26740;45.944;12.480;2023-07-28T08:41:20;0.60;;;0.20;;
40997;SDS011;26740;45.944;12.480;2023-07-28T08:43:45;0.80;;;0.30;;
40997;SDS011;26740;45.944;12.480;2023-07-28T08:46:11;1.95;;;0.20;;
40997;SDS011;26740;45.944;12.480;2023-07-28T08:48:37;0.93;;;0.20;;
40997;SDS011;26740;45.944;12.480;2023-07-28T08:51:02;2.65;;;0.25;;
40997;SDS011;26740;45.944;12.480;2023-07-28T08:53:29;1.25;;;0.30;;
40997;SDS011;26740;45.944;12.480;2023-07-28T08:55:55;0.75;;;0.20;;
40997;SDS011;26740;45.944;12.480;2023-07-28T08:58:21;2.67;;;0.20;;
40997;SDS011;26740;45.944;12.480;2023-07-28T09:00:47;0.50;;;0.25;;
40997;SDS011;26740;45.944;12.480;2023-07-28T09:03:15;0.57;;;0.20;;
40997;SDS011;26740;45.944;12.480;2023-07-28T09:05:44;1.75;;;0.82;;
40997;SDS011;26740;45.944;12.480;2023-07-28T09:08:15;0.43;;;0.15;;
40997;SDS011;26740;45.944;12.480;2023-07-28T09:13:10;0.45;;;0.20;;
40997;SDS011;26740;45.944;12.480;2023-07-28T09:15:37;0.70;;;0.20;;
40997;SDS011;26740;45.944;12.480;2023-07-28T09:18:02;0.30;;;0.10;;
40997;SDS011;26740;45.944;12.480;2023-07-28T09:20:33;1.48;;;0.15;;
40997;SDS011;26740;45.944;12.480;2023-07-28T09:23:00;1.25;;;0.10;;
40997;SDS011;26740;45.944;12.480;2023-07-28T09:25:25;1.38;;;0.20;;
40997;SDS011;26740;45.944;12.480;2023-07-28T09:27:53;0.85;;;0.30;;
40997;SDS011;26740;45.944;12.480;2023-07-28T09:30:18;0.45;;;0.20;;
40997;SDS011;26740;45.944;12.480;2023-07-28T09:32:48;0.43;;;0.20;;
40997;SDS011;26740;45.944;12.480;2023-07-28T09:35:13;0.13;;;0.10;;
40997;SDS011;26740;45.944;12.480;2023-07-28T09:37:40;0.20;;;0.10;;
40997;SDS011;26740;45.944;12.480;2023-07-28T09:40:07;0.63;;;0.10;;
40997;SDS011;26740;45.944;12.480;2023-07-28T09:42:36;0.90;;;0.20;;
40997;SDS011;26740;45.944;12.480;2023-07-28T09:45:02;0.40;;;0.20;;
40997;SDS011;26740;45.944;12.480;2023-07-28T09:47:28;1.20;;;0.30;;
40997;SDS011;26740;45.944;12.480;2023-07-28T09:49:55;0.68;;;0.20;;
40997;SDS011;26740;45.944;12.480;2023-07-28T09:52:23;0.40;;;0.20;;
40997;SDS011;26740;45.944;12.480;2023-07-28T09:54:50;0.55;;;0.20;;
40997;SDS011;26740;45.944;12.480;2023-07-28T09:57:20;0.43;;;0.17;;
40997;SDS011;26740;45.944;12.480;2023-07-28T09:59:46;0.50;;;0.20;;
40997;SDS011;26740;45.944;12.480;2023-07-28T10:02:12;0.17;;;0.10;;
40997;SDS011;26740;45.944;12.480;2023-07-28T10:04:38;0.73;;;0.20;;
40997;SDS011;26740;45.944;12.480;2023-07-28T10:07:06;1.27;;;0.20;;
40997;SDS011;26740;45.944;12.480;2023-07-28T10:09:32;1.98;;;0.15;;
40997;SDS011;26740;45.944;12.480;2023-07-28T10:11:59;0.80;;;0.30;;
40997;SDS011;26740;45.944;12.480;2023-07-28T10:14:28;1.35;;;0.20;;
40997;SDS011;26740;45.944;12.480;2023-07-28T10:16:55;0.28;;;0.15;;
40997;SDS011;26740;45.944;12.480;2023-07-28T10:19:21;0.40;;;0.10;;
40997;SDS011;26740;45.944;12.480;2023-07-28T10:21:46;0.50;;;0.20;;
40997;SDS011;26740;45.944;12.480;2023-07-28T10:24:12;0.55;;;0.13;;
40997;SDS011;26740;45.944;12.480;2023-07-28T10:26:39;1.52;;;0.20;;
40997;SDS011;26740;45.944;12.480;2023-07-28T10:29:13;0.15;;;0.10;;
40997;SDS011;26740;45.944;12.480;2023-07-28T10:31:53;2.47;;;0.50;;
40997;SDS011;26740;45.944;12.480;2023-07-28T10:34:18;0.95;;;0.20;;
40997;SDS011;26740;45.944;12.480;2023-07-28T10:36:44;0.30;;;0.20;;
40997;SDS011;26740;45.944;12.480;2023-07-28T10:39:16;0.80;;;0.30;;
40997;SDS011;26740;45.944;12.480;2023-07-28T10:44:48;0.75;;;0.13;;
40997;SDS011;26740;45.944;12.480;2023-07-28T10:47:14;2.15;;;0.10;;
40997;SDS011;26740;45.944;12.480;2023-07-28T10:49:40;0.40;;;0.10;;
40997;SDS011;26740;45.944;12.480;2023-07-28T10:52:06;0.32;;;0.20;;
40997;SDS011;26740;45.944;12.480;2023-07-28T10:54:31;0.50;;;0.20;;
40997;SDS011;26740;45.944;12.480;2023-07-28T10:56:57;2.90;;;0.40;;
40997;SDS011;26740;45.944;12.480;2023-07-28T10:59:26;1.60;;;0.20;;
40997;SDS011;26740;45.944;12.480;2023-07-28T11:01:52;0.73;;;0.20;;
40997;SDS011;26740;45.944;12.480;2023-07-28T11:04:19;1.58;;;0.22;;
40997;SDS011;26740;45.944;12.480;2023-07-28T11:06:46;0.52;;;0.17;;
40997;SDS011;26740;45.944;12.480;2023-07-28T11:09:12;0.55;;;0.20;;
40997;SDS011;26740;45.944;12.480;2023-07-28T11:11:38;1.30;;;0.30;;
40997;SDS011;26740;45.944;12.480;2023-07-28T11:14:04;0.40;;;0.20;;
40997;SDS011;26740;45.944;12.480;2023-07-28T11:16:30;0.50;;;0.20;;
40997;SDS011;26740;45.944;12.480;2023-07-28T11:18:57;0.65;;;0.20;;
40997;SDS011;26740;45.944;12.480;2023-07-28T11:21:25;0.85;;;0.10;;
40997;SDS011;26740;45.944;12.480;2023-07-28T11:23:50;1.15;;;0.17;;
40997;SDS011;26740;45.944;12.480;2023-07-28T11:26:16;1.17;;;0.20;;
40997;SDS011;26740;45.944;12.480;2023-07-28T11:28:43;0.32;;;0.15;;
40997;SDS011;26740;45.944;12.480;2023-07-28T11:31:08;1.58;;;0.65;;
40997;SDS011;26740;45.944;12.480;2023-07-28T11:33:34;0.32;;;0.15;;
40997;SDS011;26740;45.944;12.480;2023-07-28T11:36:00;0.95;;;0.30;;
40997;SDS011;26740;45.944;12.480;2023-07-28T11:38:26;0.68;;;0.10;;
40997;SDS011;26740;45.944;12.480;2023-07-28T11:40:52;2.08;;;0.20;;
40997;SDS011;26740;45.944;12.480;2023-07-28T11:43:18;1.17;;;0.20;;
40997;SDS011;26740;45.944;12.480;2023-07-28T11:45:44;0.30;;;0.20;;
40997;SDS011;26740;45.944;12.480;2023-07-28T11:48:09;3.70;;;0.20;;
40997;SDS011;26740;45.944;12.480;2023-07-28T11:50:39;0.65;;;0.10;;
40997;SDS011;26740;45.944;12.480;2023-07-28T11:55:32;0.82;;;0.30;;
40997;SDS011;26740;45.944;12.480;2023-07-28T11:57:58;1.02;;;0.20;;
40997;SDS011;26740;45.944;12.480;2023-07-28T12:00:32;4.45;;;0.20;;
40997;SDS011;26740;45.944;12.480;2023-07-28T12:03:04;1.77;;;0.20;;
40997;SDS011;26740;45.944;12.480;2023-07-28T12:05:30;0.20;;;0.20;;
40997;SDS011;26740;45.944;12.480;2023-07-28T12:07:56;0.77;;;0.28;;
40997;SDS011;26740;45.944;12.480;2023-07-28T12:10:21;1.38;;;0.20;;
40997;SDS011;26740;45.944;12.480;2023-07-28T12:12:46;1.17;;;0.20;;
40997;SDS011;26740;45.944;12.480;2023-07-28T12:15:19;0.65;;;0.20;;
40997;SDS011;26740;45.944;12.480;2023-07-28T12:18:08;1.17;;;0.57;;
40997;SDS011;26740;45.944;12.480;2023-07-28T12:20:35;0.60;;;0.20;;
40997;SDS011;26740;45.944;12.480;2023-07-28T12:23:01;0.77;;;0.30;;
40997;SDS011;26740;45.944;12.480;2023-07-28T12:25:26;0.20;;;0.15;;
40997;SDS011;26740;45.944;12.480;2023-07-28T12:27:52;0.85;;;0.25;;
40997;SDS011;26740;45.944;12.480;2023-07-28T12:30:17;0.32;;;0.17;;
40997;SDS011;26740;45.944;12.480;2023-07-28T12:32:43;0.32;;;0.20;;
40997;SDS011;26740;45.944;12.480;2023-07-28T12:35:09;2.05;;;0.20;;
40997;SDS011;26740;45.944;12.480;2023-07-28T12:37:34;1.65;;;0.25;;
40997;SDS011;26740;45.944;12.480;2023-07-28T12:40:00;3.10;;;0.20;;
40997;SDS011;26740;45.944;12.480;2023-07-28T12:42:26;0.90;;;0.20;;
40997;SDS011;26740;45.944;12.480;2023-07-28T12:44:52;0.57;;;0.30;;
40997;SDS011;26740;45.944;12.480;2023-07-28T12:47:17;2.53;;;0.30;;
40997;SDS011;26740;45.944;12.480;2023-07-28T12:49:42;0.93;;;0.32;;
40997;SDS011;26740;45.944;12.480;2023-07-28T12:52:08;1.67;;;0.30;;
40997;SDS011;26740;45.944;12.480;2023-07-28T12:54:34;0.32;;;0.32;;
40997;SDS011;26740;45.944;12.480;2023-07-28T12:56:59;1.00;;;0.30;;
40997;SDS011;26740;45.944;12.480;2023-07-28T12:59:25;1.42;;;0.40;;
40997;SDS011;26740;45.944;12.480;2023-07-28T13:01:50;1.30;;;0.40;;
40997;SDS011;26740;45.944;12.480;2023-07-28T13:04:16;0.82;;;0.20;;
40997;SDS011;26740;45.944;12.480;2023-07-28T13:06:41;0.80;;;0.25;;
40997;SDS011;26740;45.944;12.480;2023-07-28T13:09:07;1.50;;;0.52;;
40997;SDS011;26740;45.944;12.480;2023-07-28T13:11:35;0.55;;;0.30;;
40997;SDS011;26740;45.944;12.480;2023-07-28T13:14:01;2.38;;;0.50;;
40997;SDS011;26740;45.944;12.480;2023-07-28T13:16:26;2.35;;;0.40;;
40997;SDS011;26740;45.944;12.480;2023-07-28T13:18:52;1.23;;;0.35;;
40997;SDS011;26740;45.944;12.480;2023-07-28T13:21:17;2.58;;;0.30;;
40997;SDS011;26740;45.944;12.480;2023-07-28T13:23:43;1.20;;;0.25;;
40997;SDS011;26740;45.944;12.480;2023-07-28T13:26:08;1.02;;;0.17;;
40997;SDS011;26740;45.944;12.480;2023-07-28T13:28:34;0.50;;;0.40;;
40997;SDS011;26740;45.944;12.480;2023-07-28T13:31:02;2.15;;;0.22;;
40997;SDS011;26740;45.944;12.480;2023-07-28T13:33:28;2.15;;;0.20;;
40997;SDS011;26740;45.944;12.480;2023-07-28T13:35:53;0.45;;;0.40;;
40997;SDS011;26740;45.944;12.480;2023-07-28T13:38:19;0.60;;;0.30;;
40997;SDS011;26740;45.944;12.480;2023-07-28T13:40:44;0.40;;;0.20;;
40997;SDS011;26740;45.944;12.480;2023-07-28T13:43:10;1.00;;;0.30;;
40997;SDS011;26740;45.944;12.480;2023-07-28T13:45:35;3.28;;;0.30;;
40997;SDS011;26740;45.944;12.480;2023-07-28T13:48:00;0.65;;;0.30;;
40997;SDS011;26740;45.944;12.480;2023-07-28T13:50:26;2.00;;;0.40;;
40997;SDS011;26740;45.944;12.480;2023-07-28T13:52:51;3.03;;;0.20;;
40997;SDS011;26740;45.944;12.480;2023-07-28T13:55:16;1.48;;;0.52;;
40997;SDS011;26740;45.944;12.480;2023-07-28T13:57:42;2.38;;;0.32;;
40997;SDS011;26740;45.944;12.480;2023-07-28T14:00:08;0.80;;;0.20;;
40997;SDS011;26740;45.944;12.480;2023-07-28T14:02:34;0.70;;;0.25;;
40997;SDS011;26740;45.944;12.480;2023-07-28T14:05:00;0.63;;;0.20;;
40997;SDS011;26740;45.944;12.480;2023-07-28T14:07:25;0.55;;;0.30;;
40997;SDS011;26740;45.944;12.480;2023-07-28T14:09:51;0.68;;;0.30;;
40997;SDS011;26740;45.944;12.480;2023-07-28T14:12:16;2.67;;;0.30;;
40997;SDS011;26740;45.944;12.480;2023-07-28T14:14:43;1.45;;;0.30;;
40997;SDS011;26740;45.944;12.480;2023-07-28T14:17:08;0.52;;;0.25;;
40997;SDS011;26740;45.944;12.480;2023-07-28T14:19:34;2.58;;;0.75;;
40997;SDS011;26740;45.944;12.480;2023-07-28T14:21:59;2.58;;;0.30;;
40997;SDS011;26740;45.944;12.480;2023-07-28T14:24:25;1.33;;;0.40;;
40997;SDS011;26740;45.944;12.480;2023-07-28T14:26:50;1.15;;;0.30;;
40997;SDS011;26740;45.944;12.480;2023-07-28T14:29:16;2.33;;;0.20;;
40997;SDS011;26740;45.944;12.480;2023-07-28T14:31:41;2.63;;;0.30;;
40997;SDS011;26740;45.944;12.480;2023-07-28T14:34:06;2.67;;;0.25;;
40997;SDS011;26740;45.944;12.480;2023-07-28T14:36:32;1.40;;;0.30;;